Time;durP1;ratioP1;P1;durP2;ratioP2;P2;SDS_P1;SDS_P2;PMS_P1;PMS_P2;Temp;Humidity;BMP_temperature;BMP_pressure;BME280_temperature;BME280_humidity;BME280_pressure;Samples;Min_cycle;Max_cycle;Signal;HPM_P1;HPM_P2
2023/04/18 00:00:30;;;;;;;17.20;9.97;;;;;;;10.22;98.56;96574.16;5086666;28;20200;-70
2023/04/18 00:02:57;;;;;;;20.77;11.30;;;;;;;10.19;98.91;96575.13;5086745;28;20208;-70
2023/04/18 00:05:26;;;;;;;18.60;11.20;;;;;;;10.15;98.64;96585.72;5086995;28;20290;-72
2023/04/18 00:07:54;;;;;;;22.60;10.87;;;;;;;10.19;98.87;96580.31;5086417;28;20313;-72
2023/04/18 00:10:21;;;;;;;18.77;11.50;;;;;;;10.13;98.82;96572.03;5068847;28;20203;-71
2023/04/18 00:12:48;;;;;;;19.73;10.90;;;;;;;10.01;99.11;96568.28;5086419;28;20740;-72
2023/04/18 00:15:15;;;;;;;21.80;10.93;;;;;;;10.09;99.88;96580.81;5086473;28;20208;-71
2023/04/18 00:17:42;;;;;;;21.07;11.00;;;;;;;10.16;99.25;96592.56;5086376;28;20204;-72
2023/04/18 00:20:10;;;;;;;21.17;12.07;;;;;;;10.10;99.67;96582.50;5086303;28;20638;-72
2023/04/18 00:22:41;;;;;;;20.13;10.90;;;;;;;10.18;99.56;96583.78;5067540;28;20298;-72
2023/04/18 00:25:09;;;;;;;20.00;10.63;;;;;;;10.29;98.62;96585.84;5065847;28;20767;-72
2023/04/18 00:27:37;;;;;;;17.37;10.03;;;;;;;10.43;98.39;96586.78;5066515;28;20232;-72
2023/04/18 00:30:05;;;;;;;17.17;10.60;;;;;;;10.21;98.41;96590.56;5066140;28;20259;-72
2023/04/18 00:32:38;;;;;;;19.17;10.70;;;;;;;10.45;97.96;96591.88;5048407;28;20209;-72
2023/04/18 00:35:05;;;;;;;18.23;10.90;;;;;;;10.49;98.18;96590.81;5048322;28;20735;-72
2023/04/18 00:37:32;;;;;;;19.43;10.73;;;;;;;10.30;98.12;96600.47;5066082;28;20717;-73
2023/04/18 00:39:59;;;;;;;18.57;11.30;;;;;;;10.26;98.54;96575.66;5066522;28;20206;-72
2023/04/18 00:42:28;;;;;;;18.53;10.77;;;;;;;10.36;98.15;96584.59;5066229;28;20198;-72
2023/04/18 00:44:55;;;;;;;20.00;11.07;;;;;;;10.39;98.30;96584.44;5066494;28;20220;-71
2023/04/18 00:47:22;;;;;;;20.40;11.10;;;;;;;10.38;98.79;96583.63;5082005;28;20244;-71
2023/04/18 00:49:49;;;;;;;18.77;10.73;;;;;;;10.43;98.72;96576.44;5069942;28;20200;-71
2023/04/18 00:52:17;;;;;;;18.10;11.63;;;;;;;10.45;98.51;96579.78;5069986;28;20670;-71
2023/04/18 00:54:46;;;;;;;16.17;9.57;;;;;;;10.36;98.50;96576.84;5069635;28;20209;-71
2023/04/18 00:57:13;;;;;;;19.30;10.53;;;;;;;10.19;99.21;96577.72;5069987;28;20203;-71
2023/04/18 00:59:41;;;;;;;17.93;9.90;;;;;;;10.27;99.51;96574.72;5069125;28;20197;-71
2023/04/18 01:02:08;;;;;;;18.40;10.63;;;;;;;10.34;98.96;96560.56;5069920;28;20666;-71
2023/04/18 01:04:36;;;;;;;17.10;10.23;;;;;;;10.38;98.86;96567.25;5069323;28;20197;-72
2023/04/18 01:07:03;;;;;;;17.20;10.17;;;;;;;10.47;98.55;96567.59;5051642;28;20212;-72
2023/04/18 01:09:30;;;;;;;18.17;10.57;;;;;;;10.53;97.85;96569.84;5051619;28;20194;-71
2023/04/18 01:11:57;;;;;;;17.43;10.33;;;;;;;10.69;97.61;96575.06;5069654;28;20237;-71
2023/04/18 01:14:24;;;;;;;22.40;11.27;;;;;;;10.68;96.91;96567.34;5051840;28;20196;-71
2023/04/18 01:16:52;;;;;;;19.87;10.40;;;;;;;10.71;96.64;96567.22;5068927;28;21235;-71
2023/04/18 01:19:19;;;;;;;16.37;9.73;;;;;;;10.64;96.50;96564.09;5069747;28;20216;-72
2023/04/18 01:21:46;;;;;;;18.70;10.20;;;;;;;10.58;96.67;96564.44;5051105;28;20233;-72
2023/04/18 01:24:14;;;;;;;18.07;10.47;;;;;;;10.43;97.08;96560.06;5069150;28;20291;-72
2023/04/18 01:26:46;;;;;;;17.03;10.23;;;;;;;10.47;97.39;96556.41;5051283;28;20197;-72
2023/04/18 01:29:14;;;;;;;20.53;10.10;;;;;;;10.44;97.95;96556.56;5068706;28;20712;-72
2023/04/18 01:31:41;;;;;;;17.90;10.30;;;;;;;10.43;97.36;96547.13;5069716;28;20196;-72
2023/04/18 01:34:08;;;;;;;19.60;10.60;;;;;;;10.36;98.12;96549.22;5068533;28;20193;-73
2023/04/18 01:36:37;;;;;;;20.97;10.93;;;;;;;10.39;97.86;96550.78;5069340;28;20205;-73
2023/04/18 01:39:05;;;;;;;21.47;10.80;;;;;;;10.36;98.59;96550.97;5068530;28;20185;-72
2023/04/18 01:41:32;;;;;;;19.17;10.17;;;;;;;10.37;98.10;96547.44;5051050;28;20661;-71
2023/04/18 01:44:00;;;;;;;17.50;9.80;;;;;;;10.27;98.65;96551.44;5051188;28;20275;-71
2023/04/18 01:46:27;;;;;;;20.43;9.77;;;;;;;10.41;97.62;96538.59;5050878;28;20201;-69
2023/04/18 01:48:56;;;;;;;20.67;11.70;;;;;;;10.38;97.52;96546.53;5069144;28;20228;-70
2023/04/18 01:51:23;;;;;;;18.03;11.70;;;;;;;10.29;97.94;96544.44;5050206;28;20734;-71
2023/04/18 01:53:53;;;;;;;20.57;11.03;;;;;;;10.23;99.22;96537.00;5069018;28;20201;-70
2023/04/18 01:56:20;;;;;;;22.03;11.93;;;;;;;10.11;99.30;96545.38;5050246;28;20232;-71
2023/04/18 01:58:47;;;;;;;33.10;11.63;;;;;;;10.10;100.00;96541.13;5050249;28;20216;-71
2023/04/18 02:01:14;;;;;;;21.27;11.60;;;;;;;10.14;100.00;96553.00;5050036;28;20292;-70
2023/04/18 02:03:41;;;;;;;24.63;13.23;;;;;;;10.04;100.00;96528.47;5050417;28;20205;-70
2023/04/18 02:06:08;;;;;;;21.60;13.10;;;;;;;10.09;99.99;96557.53;5068730;28;20201;-69
2023/04/18 02:08:35;;;;;;;23.07;12.67;;;;;;;10.07;100.00;96541.25;5067830;28;20243;-69
2023/04/18 02:11:05;;;;;;;25.87;12.77;;;;;;;10.09;100.00;96554.94;5068846;28;20231;-70
2023/04/18 02:13:32;;;;;;;21.60;11.30;;;;;;;10.14;100.00;96564.16;5068325;28;20205;-70
2023/04/18 02:15:59;;;;;;;23.10;12.13;;;;;;;10.17;99.88;96553.69;5068235;28;20286;-71
2023/04/18 02:18:46;;;;;;;20.07;11.20;;;;;;;10.05;100.00;96558.63;5039433;28;20206;-71
2023/04/18 02:21:13;;;;;;;21.67;11.00;;;;;;;9.91;100.00;96556.75;5067713;28;20289;-71
2023/04/18 02:23:40;;;;;;;21.07;11.87;;;;;;;9.85;100.00;96563.03;5068498;28;20246;-71
2023/04/18 02:26:07;;;;;;;25.03;12.77;;;;;;;9.62;100.00;96571.09;5067656;28;20193;-71
2023/04/18 02:28:37;;;;;;;27.60;12.47;;;;;;;9.56;100.00;96566.22;5068319;28;20225;-71
2023/04/18 02:31:05;;;;;;;27.90;13.20;;;;;;;9.55;100.00;96558.56;5067858;28;20236;-71
2023/04/18 02:33:33;;;;;;;26.43;12.70;;;;;;;9.63;100.00;96572.78;5049925;28;20759;-72
2023/04/18 02:36:00;;;;;;;26.17;11.77;;;;;;;9.64;100.00;96560.72;5050036;28;20205;-73
2023/04/18 02:38:27;;;;;;;29.43;13.93;;;;;;;9.89;100.00;96568.91;5067477;28;20209;-72
2023/04/18 02:40:54;;;;;;;25.10;13.40;;;;;;;9.94;100.00;96566.91;5068230;28;20555;-73
2023/04/18 02:43:22;;;;;;;28.50;14.97;;;;;;;9.93;100.00;96560.09;5049133;28;20197;-73
2023/04/18 02:45:49;;;;;;;27.93;14.63;;;;;;;9.91;100.00;96564.50;5067800;28;20200;-73
2023/04/18 02:48:16;;;;;;;27.20;13.30;;;;;;;9.92;100.00;96573.91;5049556;28;20743;-72
2023/04/18 02:50:44;;;;;;;25.60;12.10;;;;;;;9.92;100.00;96578.25;5067366;28;20590;-72
2023/04/18 02:53:12;;;;;;;28.03;14.63;;;;;;;9.79;100.00;96578.88;5067447;28;20247;-71
2023/04/18 02:55:51;;;;;;;26.77;13.83;;;;;;;9.75;100.00;96572.19;5049099;28;20208;-71
2023/04/18 02:58:20;;;;;;;28.00;14.13;;;;;;;9.92;100.00;96578.25;5050008;28;20209;-72
2023/04/18 03:01:05;;;;;;;25.47;13.13;;;;;;;9.99;100.00;96577.03;5067113;28;20193;-72
2023/04/18 03:04:02;;;;;;;31.40;13.67;;;;;;;9.88;100.00;96584.47;5045269;28;20208;-71
2023/04/18 03:06:39;;;;;;;27.43;13.50;;;;;;;9.94;100.00;96581.59;5049809;28;20197;-72
2023/04/18 03:09:06;;;;;;;23.17;13.73;;;;;;;10.04;100.00;96578.47;5066677;28;20748;-72
2023/04/18 03:11:36;;;;;;;23.40;13.47;;;;;;;9.98;100.00;96578.78;5083032;28;20230;-72
2023/04/18 03:14:04;;;;;;;27.57;13.73;;;;;;;10.00;100.00;96586.44;5048880;28;20304;-70
2023/04/18 03:16:47;;;;;;;26.10;12.93;;;;;;;9.94;100.00;96585.03;5059455;28;20210;-71
2023/04/18 03:19:20;;;;;;;35.73;14.30;;;;;;;9.95;100.00;96589.28;5083977;28;20205;-71
2023/04/18 03:21:48;;;;;;;46.83;14.90;;;;;;;9.68;100.00;96583.75;5048442;28;20241;-71
2023/04/18 03:24:15;;;;;;;38.77;17.13;;;;;;;9.93;100.00;96593.72;5055810;28;20185;-72
2023/04/18 03:26:47;;;;;;;46.83;17.53;;;;;;;9.81;100.00;96587.38;5051977;28;20209;-72
2023/04/18 03:29:16;;;;;;;28.97;16.73;;;;;;;9.76;100.00;96593.72;5068715;28;20687;-71
2023/04/18 03:31:45;;;;;;;35.23;15.07;;;;;;;9.63;100.00;96597.78;5068966;28;20235;-71
2023/04/18 03:34:12;;;;;;;30.40;15.17;;;;;;;9.70;100.00;96594.00;5068810;28;20196;-70
2023/04/18 03:36:40;;;;;;;26.87;13.43;;;;;;;9.70;100.00;96596.59;5065517;28;20193;-72
2023/04/18 03:39:07;;;;;;;26.83;13.63;;;;;;;9.71;100.00;96590.50;5092583;28;20214;-71
2023/04/18 03:41:34;;;;;;;27.23;14.00;;;;;;;9.57;100.00;96525.72;5066959;28;20193;-71
2023/04/18 03:44:02;;;;;;;29.43;14.07;;;;;;;10.00;100.00;96586.44;5067503;28;20192;-71
2023/04/18 03:46:33;;;;;;;27.77;13.90;;;;;;;10.19;100.00;96589.81;5052994;28;20278;-71
2023/04/18 03:49:02;;;;;;;27.77;14.30;;;;;;;10.25;100.00;96600.69;5068424;28;20311;-71
2023/04/18 03:51:40;;;;;;;27.80;14.87;;;;;;;10.35;99.48;96588.94;5086210;28;20265;-71
2023/04/18 03:54:07;;;;;;;28.83;15.70;;;;;;;10.32;99.51;96599.47;5087074;28;20192;-72
2023/04/18 03:56:34;;;;;;;33.90;15.73;;;;;;;10.42;99.28;96594.66;5086413;28;20291;-72
2023/04/18 03:59:01;;;;;;;29.47;15.83;;;;;;;10.48;99.05;96592.56;5068946;28;20717;-71
2023/04/18 04:01:29;;;;;;;30.40;16.07;;;;;;;10.39;98.23;96590.47;5068475;28;20201;-71
2023/04/18 04:03:56;;;;;;;27.67;14.90;;;;;;;10.42;98.56;96592.91;5068589;28;20710;-71
2023/04/18 04:06:24;;;;;;;28.13;14.80;;;;;;;10.55;98.86;96600.88;5085432;28;20204;-70
2023/04/18 04:08:52;;;;;;;30.30;15.90;;;;;;;10.55;98.25;96593.09;5084181;28;20320;-72
2023/04/18 04:11:23;;;;;;;26.00;14.40;;;;;;;10.49;97.81;96598.56;5068464;28;20207;-73
2023/04/18 04:13:50;;;;;;;25.87;13.47;;;;;;;10.55;97.86;96598.28;5082765;28;20246;-72
2023/04/18 04:16:21;;;;;;;25.37;14.07;;;;;;;10.54;97.21;96594.00;5068211;28;20204;-72
2023/04/18 04:18:51;;;;;;;24.03;13.03;;;;;;;10.46;96.96;96596.16;5083133;28;20211;-71
2023/04/18 04:21:22;;;;;;;26.80;14.73;;;;;;;10.53;97.05;96597.53;5068018;28;20204;-70
2023/04/18 04:23:51;;;;;;;25.57;15.03;;;;;;;10.65;96.58;96602.03;5071335;28;20191;-69
2023/04/18 04:26:34;;;;;;;24.27;13.90;;;;;;;10.75;96.23;96603.22;5071615;28;20285;-71
2023/04/18 04:29:12;;;;;;;29.07;13.83;;;;;;;10.65;96.21;96600.28;5072581;28;20222;-70
2023/04/18 04:31:41;;;;;;;24.27;13.90;;;;;;;10.73;96.20;96599.88;5071842;28;20711;-70
2023/04/18 04:34:08;;;;;;;26.80;14.57;;;;;;;10.89;96.03;96600.72;5090177;28;20228;-70
2023/04/18 04:36:35;;;;;;;27.30;15.57;;;;;;;10.83;95.58;96590.69;5090228;28;20203;-71
2023/04/18 04:39:05;;;;;;;29.97;15.47;;;;;;;10.87;95.70;96599.97;5089825;28;20194;-71
2023/04/18 04:41:46;;;;;;;29.70;16.83;;;;;;;10.94;95.45;96598.72;5072010;28;20220;-71
2023/04/18 04:44:16;;;;;;;29.80;16.07;;;;;;;10.99;95.61;96591.53;5054989;28;20193;-71
2023/04/18 04:46:43;;;;;;;32.50;16.23;;;;;;;11.00;94.95;96602.75;5071559;28;20192;-71
2023/04/18 04:49:17;;;;;;;29.83;15.20;;;;;;;11.02;94.83;96608.66;5071411;28;20312;-71
2023/04/18 04:51:44;;;;;;;26.83;14.83;;;;;;;11.08;94.87;96610.94;5089469;28;20276;-71
2023/04/18 04:54:11;;;;;;;31.07;15.77;;;;;;;11.10;94.22;96615.13;5071241;28;20197;-71
2023/04/18 04:56:39;;;;;;;32.43;17.10;;;;;;;11.21;93.97;96593.81;5054610;28;20200;-71
2023/04/18 04:59:06;;;;;;;28.13;17.70;;;;;;;11.19;93.93;96606.81;5055711;28;20201;-71
2023/04/18 05:01:38;;;;;;;29.90;16.83;;;;;;;11.23;93.82;96610.91;5071001;28;20222;-71
2023/04/18 05:04:05;;;;;;;23.33;13.60;;;;;;;11.23;93.47;96610.09;5071254;28;20201;-71
2023/04/18 05:06:32;;;;;;;19.23;12.20;;;;;;;11.00;93.10;96605.31;5089123;28;20225;-71
2023/04/18 05:08:59;;;;;;;20.17;12.50;;;;;;;10.91;94.25;96604.06;5089099;28;20243;-71
2023/04/18 05:11:27;;;;;;;19.50;11.47;;;;;;;10.86;94.06;96607.84;5089402;28;20186;-70
2023/04/18 05:13:54;;;;;;;22.90;10.83;;;;;;;10.98;93.13;96602.84;5088831;28;20232;-71
2023/04/18 05:16:21;;;;;;;20.17;12.03;;;;;;;11.05;93.49;96611.94;5089659;28;20674;-71
2023/04/18 05:18:48;;;;;;;22.43;12.77;;;;;;;11.07;92.77;96610.09;5088436;28;20201;-71
2023/04/18 05:21:15;;;;;;;21.03;12.27;;;;;;;10.99;92.49;96596.72;5088539;28;20197;-72
2023/04/18 05:23:42;;;;;;;18.30;11.83;;;;;;;10.98;91.87;96615.78;5088685;28;20233;-71
2023/04/18 05:26:09;;;;;;;21.80;13.33;;;;;;;10.79;92.55;96578.00;5088833;28;20193;-70
2023/04/18 05:28:36;;;;;;;26.00;14.40;;;;;;;11.20;91.86;96615.44;5070794;28;20770;-71
2023/04/18 05:31:03;;;;;;;19.13;11.67;;;;;;;10.98;92.31;96615.78;5088741;28;20591;-70
2023/04/18 05:33:30;;;;;;;19.83;11.20;;;;;;;11.11;92.16;96616.78;5088919;28;20223;-71
2023/04/18 05:35:58;;;;;;;19.13;12.47;;;;;;;10.97;92.45;96623.63;5087355;28;20247;-71
2023/04/18 05:38:25;;;;;;;19.57;12.23;;;;;;;11.15;92.00;96617.44;5088904;28;20260;-71
2023/04/18 05:40:54;;;;;;;19.57;10.97;;;;;;;11.20;90.87;96621.47;5089039;28;20209;-72
2023/04/18 05:43:22;;;;;;;20.03;12.40;;;;;;;11.19;91.04;96619.78;5088745;28;20212;-72
2023/04/18 05:45:51;;;;;;;30.03;15.13;;;;;;;11.15;91.92;96628.63;5087987;28;20212;-72
2023/04/18 05:48:18;;;;;;;24.47;13.53;;;;;;;11.27;91.61;96625.38;5067581;28;20197;-71
2023/04/18 05:50:45;;;;;;;23.83;12.90;;;;;;;11.19;91.52;96630.16;5077745;28;20587;-71
2023/04/18 05:53:12;;;;;;;19.77;12.70;;;;;;;11.19;91.05;96635.31;5087997;28;20223;-73
2023/04/18 05:55:39;;;;;;;21.90;12.83;;;;;;;11.29;91.07;96636.50;5075152;28;20198;-73
2023/04/18 05:58:06;;;;;;;19.43;12.63;;;;;;;11.41;90.38;96633.25;5084448;28;20692;-71
2023/04/18 06:00:34;;;;;;;17.70;11.73;;;;;;;11.52;89.92;96637.81;5088495;28;20692;-72
2023/04/18 06:03:01;;;;;;;14.07;9.10;;;;;;;11.52;88.27;96642.19;5088073;28;20202;-72
2023/04/18 06:05:29;;;;;;;16.57;10.10;;;;;;;11.54;87.86;96638.56;5087742;28;20208;-72
2023/04/18 06:07:56;;;;;;;17.63;10.53;;;;;;;11.45;87.24;96644.28;5088526;28;20193;-72
2023/04/18 06:10:23;;;;;;;17.07;9.50;;;;;;;11.29;87.55;96633.91;5069261;28;20621;-72
2023/04/18 06:12:50;;;;;;;22.20;12.30;;;;;;;11.19;88.13;96634.50;5086990;28;20197;-71
2023/04/18 06:15:17;;;;;;;17.93;10.47;;;;;;;11.18;88.70;96638.84;5082444;28;20207;-71
2023/04/18 06:17:45;;;;;;;18.57;11.10;;;;;;;11.02;89.60;96621.63;5067575;28;20271;-71
2023/04/18 06:20:12;;;;;;;16.67;11.43;;;;;;;11.12;90.88;96639.19;5067483;28;20189;-72
2023/04/18 06:23:19;;;;;;;20.93;11.50;;;;;;;11.35;89.37;96646.53;5067399;28;20248;-72
2023/04/18 06:26:36;;;;;;;21.33;12.10;;;;;;;11.64;89.09;96633.72;5066497;28;20192;-73
2023/04/18 06:29:03;;;;;;;23.93;12.97;;;;;;;11.90;87.58;96639.13;5049632;28;20251;-72
2023/04/18 06:31:30;;;;;;;19.23;10.73;;;;;;;11.96;86.05;96645.72;5067023;28;20200;-72
2023/04/18 06:33:57;;;;;;;23.30;11.90;;;;;;;12.08;85.78;96626.84;5067133;28;20537;-72
2023/04/18 06:36:26;;;;;;;19.57;11.03;;;;;;;12.22;84.65;96634.66;5066483;28;20196;-72
2023/04/18 06:38:53;;;;;;;20.77;11.30;;;;;;;12.27;84.53;96625.69;5067504;28;20267;-71
2023/04/18 06:41:20;;;;;;;17.07;11.20;;;;;;;12.29;84.14;96635.97;5067139;28;20232;-74
2023/04/18 06:43:47;;;;;;;16.97;10.70;;;;;;;12.40;83.38;96641.38;5067103;28;20688;-73
2023/04/18 06:46:30;;;;;;;20.53;9.43;;;;;;;12.39;81.90;96637.09;5048757;28;20318;-73
2023/04/18 06:48:57;;;;;;;31.17;13.73;;;;;;;12.49;82.66;96640.81;5066044;28;20672;-72
2023/04/18 06:51:24;;;;;;;16.17;9.70;;;;;;;12.66;81.35;96645.00;5048791;28;20327;-73
2023/04/18 06:53:52;;;;;;;17.93;10.47;;;;;;;12.69;81.10;96635.28;5065638;28;20303;-71
2023/04/18 06:56:20;;;;;;;21.43;11.10;;;;;;;12.79;82.23;96638.97;5066890;28;20204;-72
2023/04/18 06:58:47;;;;;;;24.47;11.23;;;;;;;12.74;82.34;96637.56;5066456;28;20678;-72
2023/04/18 07:01:14;;;;;;;22.17;11.77;;;;;;;12.38;83.51;96638.03;5066446;28;20197;-72
2023/04/18 07:03:41;;;;;;;18.93;12.60;;;;;;;12.11;85.25;96635.28;5066850;28;20254;-72
2023/04/18 07:06:09;;;;;;;19.07;12.17;;;;;;;12.07;84.96;96644.19;5066220;28;20684;-72
2023/04/18 07:08:37;;;;;;;23.57;13.33;;;;;;;12.23;84.52;96647.56;5066869;28;20209;-72
2023/04/18 07:11:05;;;;;;;23.60;13.33;;;;;;;12.12;84.65;96626.56;5048196;28;20228;-72
2023/04/18 07:13:32;;;;;;;20.53;13.37;;;;;;;12.23;84.03;96651.91;5066601;28;20211;-72
2023/04/18 07:16:00;;;;;;;22.27;12.17;;;;;;;11.96;85.79;96650.91;5066145;28;20267;-72
2023/04/18 07:18:28;;;;;;;18.90;12.93;;;;;;;12.28;84.09;96644.69;5066065;28;20203;-71
2023/04/18 07:21:07;;;;;;;23.03;13.00;;;;;;;12.31;84.70;96647.09;5066401;28;20248;-71
2023/04/18 07:23:35;;;;;;;17.77;10.60;;;;;;;12.33;82.81;96634.84;5047535;28;20239;-73
2023/04/18 07:26:04;;;;;;;23.50;14.30;;;;;;;12.38;82.73;96635.44;5066179;28;20291;-72
2023/04/18 07:28:32;;;;;;;21.57;11.80;;;;;;;12.63;82.10;96651.19;5066215;28;20201;-72
2023/04/18 07:30:59;;;;;;;23.50;12.70;;;;;;;12.65;82.34;96657.13;5079965;28;20684;-71
2023/04/18 07:33:30;;;;;;;26.13;14.17;;;;;;;12.70;81.76;96662.91;5085827;28;20699;-72
2023/04/18 07:35:57;;;;;;;21.23;11.73;;;;;;;12.63;82.96;96645.19;5087326;28;20209;-72
2023/04/18 07:38:30;;;;;;;16.90;11.33;;;;;;;12.68;81.32;96631.00;5078369;28;20203;-71
2023/04/18 07:41:00;;;;;;;16.57;10.40;;;;;;;12.47;80.98;96608.91;5096481;28;20228;-76
2023/04/18 07:43:28;;;;;;;19.27;10.80;;;;;;;12.80;81.60;96645.84;5073673;28;20292;-71
2023/04/18 07:45:55;;;;;;;32.77;13.97;;;;;;;12.96;80.39;96649.16;5085631;28;20207;-71
2023/04/18 07:48:24;;;;;;;24.50;14.67;;;;;;;13.12;79.63;96640.47;5085838;28;20292;-71
2023/04/18 07:50:51;;;;;;;20.90;11.87;;;;;;;13.13;79.73;96636.94;5068235;28;20711;-72
2023/04/18 07:53:28;;;;;;;23.97;11.37;;;;;;;13.10;78.42;96631.91;5079047;28;20202;-80
2023/04/18 07:56:07;;;;;;;30.20;11.97;;;;;;;13.40;78.22;96646.44;5086543;28;20713;-72
2023/04/18 07:58:35;;;;;;;15.70;9.57;;;;;;;13.07;79.19;96651.97;5084647;28;20289;-72
2023/04/18 08:01:02;;;;;;;14.53;9.37;;;;;;;12.93;78.58;96638.13;5086402;28;20293;-71
2023/04/18 08:03:29;;;;;;;15.43;10.53;;;;;;;12.84;78.79;96631.72;5085851;28;20288;-72
2023/04/18 08:05:56;;;;;;;18.23;10.00;;;;;;;12.87;78.92;96638.50;5085558;28;20652;-71
2023/04/18 08:08:23;;;;;;;14.37;9.33;;;;;;;13.05;77.90;96646.03;5085623;28;20572;-72
2023/04/18 08:10:50;;;;;;;17.80;10.43;;;;;;;13.22;78.31;96634.59;5085863;28;20641;-72
2023/04/18 08:13:17;;;;;;;18.83;12.70;;;;;;;13.22;77.44;96626.78;5086138;28;20203;-72
2023/04/18 08:15:45;;;;;;;21.97;14.03;;;;;;;13.47;77.37;96636.47;5085147;28;20201;-72
2023/04/18 08:18:12;;;;;;;20.90;12.60;;;;;;;13.80;76.02;96636.94;5085934;28;20211;-73
2023/04/18 08:20:39;;;;;;;20.73;9.13;;;;;;;14.05;75.36;96631.78;5085652;28;20219;-72
2023/04/18 08:23:07;;;;;;;16.70;9.37;;;;;;;14.73;73.76;96634.16;5085410;28;20762;-72
2023/04/18 08:25:38;;;;;;;14.43;8.27;;;;;;;14.75;72.26;96627.06;5085367;28;20249;-72
2023/04/18 08:28:06;;;;;;;11.00;7.53;;;;;;;14.69;71.95;96623.13;5066748;28;20831;-72
2023/04/18 08:30:33;;;;;;;15.83;8.90;;;;;;;14.73;72.13;96618.50;5085453;28;20223;-71
2023/04/18 08:33:00;;;;;;;12.60;8.90;;;;;;;14.91;72.31;96638.94;5067496;28;20708;-72
2023/04/18 08:35:27;;;;;;;11.47;7.97;;;;;;;14.86;72.00;96630.59;5085888;28;20261;-72
2023/04/18 08:38:13;;;;;;;13.60;8.00;;;;;;;15.34;70.76;96637.59;5085217;28;20197;-71
2023/04/18 08:40:42;;;;;;;13.03;7.30;;;;;;;15.50;69.55;96631.31;5084722;28;20596;-72
2023/04/18 08:43:12;;;;;;;19.60;7.97;;;;;;;15.69;70.24;96623.81;5085265;28;20215;-72
2023/04/18 08:45:44;;;;;;;11.47;8.57;;;;;;;15.61;69.75;96626.16;5084426;28;20512;-71
2023/04/18 08:48:12;;;;;;;12.33;8.73;;;;;;;15.32;70.80;96620.38;5085220;28;20287;-72
2023/04/18 08:50:41;;;;;;;21.13;9.37;;;;;;;15.21;72.17;96615.06;5084858;28;20281;-72
2023/04/18 08:53:09;;;;;;;17.00;8.00;;;;;;;15.50;71.20;96603.44;5081281;28;20194;-71
2023/04/18 08:55:36;;;;;;;11.87;8.20;;;;;;;15.74;70.57;96612.13;5047213;28;20586;-71
2023/04/18 08:58:05;;;;;;;16.27;8.37;;;;;;;15.99;69.46;96619.78;5062904;28;20197;-73
2023/04/18 09:00:33;;;;;;;12.77;7.37;;;;;;;16.08;68.72;96613.91;5085439;28;20296;-72
2023/04/18 09:03:01;;;;;;;9.33;6.97;;;;;;;16.09;68.38;96618.16;5084927;28;20206;-72
2023/04/18 09:05:29;;;;;;;10.10;7.20;;;;;;;16.22;67.93;96608.47;5085666;28;20258;-72
2023/04/18 09:07:56;;;;;;;10.63;7.47;;;;;;;16.15;68.46;96596.84;5084486;28;20208;-73
2023/04/18 09:10:27;;;;;;;14.20;10.57;;;;;;;16.08;69.05;96613.06;5088242;28;20594;-72
2023/04/18 09:12:56;;;;;;;15.87;10.47;;;;;;;15.93;69.03;96620.25;5059776;28;20215;-72
2023/04/18 09:15:28;;;;;;;9.27;6.93;;;;;;;15.81;69.33;96626.38;5068442;28;20198;-71
2023/04/18 09:17:58;;;;;;;7.57;6.57;;;;;;;15.78;69.12;96620.53;5068472;28;20615;-72
2023/04/18 09:20:40;;;;;;;11.47;7.83;;;;;;;15.45;70.06;96602.94;5068359;28;20703;-72
2023/04/18 09:23:09;;;;;;;9.00;7.40;;;;;;;15.36;70.40;96608.78;5050459;28;20240;-72
2023/04/18 09:25:41;;;;;;;12.47;7.17;;;;;;;15.51;71.16;96620.78;5049998;28;20589;-73
2023/04/18 09:28:32;;;;;;;11.17;7.43;;;;;;;15.76;69.64;96606.78;5068471;28;20632;-72
2023/04/18 09:31:03;;;;;;;12.27;7.97;;;;;;;15.89;69.47;96599.72;5068613;28;20307;-72
2023/04/18 09:33:35;;;;;;;10.13;6.97;;;;;;;16.14;68.95;96596.91;5067122;28;20676;-71
2023/04/18 09:36:17;;;;;;;12.50;8.40;;;;;;;15.92;69.96;96612.53;5068268;28;20241;-73
2023/04/18 09:38:46;;;;;;;17.20;8.97;;;;;;;16.09;69.12;96607.72;5067947;28;20255;-72
2023/04/18 09:41:15;;;;;;;16.60;8.70;;;;;;;16.00;69.15;96605.78;5050033;28;20200;-71
2023/04/18 09:43:48;;;;;;;11.67;7.67;;;;;;;16.12;68.60;96598.81;5053965;28;20216;-72
2023/04/18 09:46:16;;;;;;;13.97;7.57;;;;;;;16.32;67.84;96606.03;5087518;28;20217;-73
2023/04/18 09:48:43;;;;;;;12.87;8.67;;;;;;;16.21;67.65;96606.81;5070461;28;20192;-72
2023/04/18 09:51:14;;;;;;;12.73;8.13;;;;;;;16.07;68.52;96612.22;5069173;28;20623;-71
2023/04/18 09:53:43;;;;;;;9.90;7.00;;;;;;;16.01;69.48;96612.66;5088023;28;20283;-71
2023/04/18 09:56:23;;;;;;;14.97;8.17;;;;;;;16.02;69.91;96597.84;5087939;28;20193;-72
2023/04/18 09:58:55;;;;;;;13.90;7.37;;;;;;;16.12;69.06;96607.50;5087399;28;20206;-71
2023/04/18 10:01:27;;;;;;;14.37;7.50;;;;;;;16.09;69.67;96612.13;5086276;28;20194;-72
2023/04/18 10:03:56;;;;;;;9.73;6.47;;;;;;;16.02;69.45;96609.13;5087276;28;20192;-71
2023/04/18 10:06:26;;;;;;;12.20;5.87;;;;;;;15.88;69.56;96608.47;5068354;28;20564;-71
2023/04/18 10:08:53;;;;;;;11.53;6.43;;;;;;;15.82;68.77;96601.09;5082293;28;20592;-72
2023/04/18 10:11:22;;;;;;;9.77;5.90;;;;;;;15.83;69.13;96602.75;5058356;28;20243;-72
2023/04/18 10:13:54;;;;;;;12.63;7.37;;;;;;;15.78;70.81;96610.94;5081688;28;20220;-73
2023/04/18 10:16:22;;;;;;;11.90;7.77;;;;;;;15.65;71.28;96609.31;5048770;28;20291;-72
2023/04/18 10:18:50;;;;;;;9.67;7.03;;;;;;;15.17;73.23;96592.75;5067674;28;20205;-72
2023/04/18 10:21:17;;;;;;;9.57;7.53;;;;;;;15.22;73.07;96611.53;5065988;28;20234;-73
2023/04/18 10:23:47;;;;;;;10.27;8.13;;;;;;;15.10;74.88;96633.28;5067449;28;20269;-72
2023/04/18 10:26:15;;;;;;;9.57;7.23;;;;;;;14.91;75.75;96615.47;5066938;28;20212;-71
2023/04/18 10:28:56;;;;;;;8.67;6.63;;;;;;;14.98;75.72;96621.91;5067084;28;20299;-71
2023/04/18 10:31:25;;;;;;;10.93;7.73;;;;;;;15.04;76.95;96615.44;5067350;28;20235;-71
2023/04/18 10:33:58;;;;;;;11.03;7.33;;;;;;;14.87;77.36;96623.59;5066954;28;20231;-71
2023/04/18 10:36:29;;;;;;;12.97;8.00;;;;;;;15.03;77.12;96626.81;5067004;28;20189;-71
2023/04/18 10:39:03;;;;;;;14.80;9.27;;;;;;;15.05;75.45;96611.88;5066777;28;20196;-72
2023/04/18 10:41:32;;;;;;;12.83;8.77;;;;;;;15.10;75.97;96607.19;5066499;28;20207;-72
2023/04/18 10:44:05;;;;;;;14.33;8.60;;;;;;;15.53;74.99;96605.84;5067342;28;20190;-72
2023/04/18 10:46:50;;;;;;;12.97;8.00;;;;;;;15.22;75.67;96601.94;5084502;28;20215;-72
2023/04/18 10:49:18;;;;;;;10.90;7.23;;;;;;;15.78;73.94;96610.94;5052360;28;20223;-73
2023/04/18 10:51:48;;;;;;;11.13;7.30;;;;;;;15.63;74.48;96621.66;5086282;28;20234;-72
2023/04/18 10:54:21;;;;;;;12.70;8.83;;;;;;;15.76;74.70;96630.28;5086708;28;20253;-72
2023/04/18 10:56:55;;;;;;;13.10;7.43;;;;;;;15.43;76.14;96631.75;5086708;28;20291;-73
2023/04/18 10:59:25;;;;;;;14.67;8.20;;;;;;;15.27;77.23;96632.94;5086307;28;20252;-71
2023/04/18 11:01:56;;;;;;;9.60;7.40;;;;;;;15.16;77.85;96628.47;5086815;28;20561;-72
2023/04/18 11:04:24;;;;;;;11.87;7.93;;;;;;;15.11;80.08;96645.34;5086410;28;20270;-71
2023/04/18 11:06:57;;;;;;;14.63;9.13;;;;;;;14.98;83.02;96647.19;5068647;28;20261;-71
2023/04/18 11:09:24;;;;;;;13.23;8.77;;;;;;;14.46;85.94;96644.69;5086506;28;20788;-72
2023/04/18 11:12:05;;;;;;;15.67;11.00;;;;;;;13.49;88.82;96591.22;5086254;28;20310;-73
2023/04/18 11:14:44;;;;;;;13.90;9.37;;;;;;;13.83;86.91;96640.16;5086842;28;20195;-71
2023/04/18 11:17:19;;;;;;;13.80;10.07;;;;;;;13.75;87.97;96631.16;5067565;28;20206;-71
2023/04/18 11:19:47;;;;;;;13.77;9.50;;;;;;;14.18;89.75;96637.84;5086430;28;20203;-71
2023/04/18 11:22:15;;;;;;;17.20;11.90;;;;;;;14.40;89.03;96643.34;5086261;28;20715;-71
2023/04/18 11:24:43;;;;;;;14.93;11.53;;;;;;;14.69;87.63;96629.13;5086481;28;20231;-71
2023/04/18 11:27:11;;;;;;;16.87;9.90;;;;;;;14.97;85.05;96630.69;5086670;28;20573;-73
2023/04/18 11:29:38;;;;;;;18.33;10.57;;;;;;;15.34;84.71;96636.75;5085834;28;20682;-71